createdAt,value
2022-08-10T00:02:37.752Z,2.00
2022-08-10T00:05:28.027Z,2.03
2022-08-10T00:08:31.078Z,2.42
2022-08-10T00:11:18.790Z,1.90
2022-08-10T00:14:07.376Z,1.90
2022-08-10T00:16:54.519Z,1.80
2022-08-10T00:20:03.455Z,1.98
2022-08-10T00:22:57.811Z,1.60
2022-08-10T00:25:47.876Z,1.98
2022-08-10T00:28:35.061Z,2.00
2022-08-10T00:31:23.168Z,1.98
2022-08-10T00:34:10.573Z,2.05
2022-08-10T00:37:00.664Z,1.63
2022-08-10T00:39:47.908Z,2.00
2022-08-10T00:42:37.732Z,2.20
2022-08-10T00:45:24.897Z,1.50
2022-08-10T00:48:12.036Z,1.70
2022-08-10T00:51:00.323Z,1.70
2022-08-10T00:53:47.813Z,1.75
2022-08-10T00:57:18.122Z,1.85
2022-08-10T00:59:58.744Z,1.95
2022-08-10T01:02:53.187Z,1.75
2022-08-10T01:05:58.129Z,2.03
2022-08-10T01:08:54.126Z,2.08
2022-08-10T01:12:38.419Z,2.08
2022-08-10T01:15:31.933Z,1.90
2022-08-10T01:18:26.362Z,2.20
2022-08-10T01:21:25.479Z,2.20
2022-08-10T01:24:27.682Z,2.00
2022-08-10T01:27:31.629Z,1.90
2022-08-10T01:30:20.819Z,2.20
2022-08-10T01:33:09.923Z,2.08
2022-08-10T01:36:03.914Z,2.08
2022-08-10T01:38:52.618Z,1.90
2022-08-10T01:41:46.961Z,1.88
2022-08-10T01:44:37.463Z,1.80
2022-08-10T01:47:49.425Z,1.80
2022-08-10T01:50:59.164Z,2.05
2022-08-10T01:53:59.002Z,1.85
2022-08-10T01:56:53.621Z,1.98
2022-08-10T01:59:43.388Z,2.00
2022-08-10T02:02:50.530Z,2.03
2022-08-10T02:05:43.429Z,2.30
2022-08-10T02:08:32.328Z,2.08
2022-08-10T02:11:21.036Z,1.92
2022-08-10T02:14:10.612Z,1.88
2022-08-10T02:16:59.099Z,1.75
2022-08-10T02:19:50.350Z,1.95
2022-08-10T02:22:39.338Z,2.10
2022-08-10T02:25:42.714Z,2.20
2022-08-10T02:28:33.186Z,2.30
2022-08-10T02:31:26.378Z,1.88
2022-08-10T02:34:21.812Z,2.03
2022-08-10T02:37:13.410Z,2.10
2022-08-10T02:40:00.712Z,1.83
2022-08-10T02:45:26.305Z,2.30
2022-08-10T02:46:20.930Z,2.00
2022-08-10T02:49:17.766Z,2.10
2022-08-10T02:52:27.978Z,2.20
2022-08-10T02:55:57.708Z,2.05
2022-08-10T02:59:09.206Z,2.25
2022-08-10T03:02:00.840Z,2.10
2022-08-10T03:04:55.091Z,2.22
2022-08-10T03:08:02.180Z,2.65
2022-08-10T03:10:50.690Z,2.17
2022-08-10T03:13:39.027Z,2.22
2022-08-10T03:16:27.564Z,2.50
2022-08-10T03:20:34.132Z,2.10
2022-08-10T03:22:32.814Z,2.33
2022-08-10T03:25:25.871Z,2.05
2022-08-10T03:28:20.648Z,2.35
2022-08-10T03:31:09.018Z,2.38
2022-08-10T03:34:05.221Z,2.53
2022-08-10T03:37:09.484Z,2.50
2022-08-10T03:39:59.037Z,2.72
2022-08-10T03:42:50.368Z,3.00
2022-08-10T03:45:54.377Z,2.60
2022-08-10T03:48:48.987Z,2.92
2022-08-10T03:51:37.833Z,3.00
2022-08-10T03:54:26.187Z,3.35
2022-08-10T03:57:16.160Z,3.13
2022-08-10T04:00:04.854Z,2.72
2022-08-10T04:02:55.866Z,2.40
2022-08-10T04:05:43.451Z,2.92
2022-08-10T04:08:31.607Z,2.75
2022-08-10T04:11:19.057Z,3.55
2022-08-10T04:14:07.593Z,2.50
2022-08-10T04:17:14.711Z,2.95
2022-08-10T04:20:02.701Z,3.05
2022-08-10T04:22:56.359Z,2.83
2022-08-10T04:25:45.050Z,2.72
2022-08-10T04:28:32.547Z,2.60
2022-08-10T04:31:21.080Z,2.88
2022-08-10T04:34:11.272Z,2.10
2022-08-10T04:37:08.873Z,2.60
2022-08-10T04:39:57.495Z,2.40
2022-08-10T04:42:44.863Z,2.72
2022-08-10T04:45:47.452Z,2.72
2022-08-10T04:48:43.199Z,2.55
2022-08-10T04:51:45.747Z,2.78
2022-08-10T04:54:32.992Z,2.35
2022-08-10T04:57:20.248Z,2.05
2022-08-10T05:00:19.196Z,3.00
2022-08-10T05:03:06.643Z,2.60
2022-08-10T05:05:56.155Z,2.22
2022-08-10T05:08:44.480Z,2.20
2022-08-10T05:11:31.929Z,2.47
2022-08-10T05:14:19.055Z,2.00
2022-08-10T05:17:06.530Z,2.15
2022-08-10T05:20:03.227Z,2.10
2022-08-10T05:22:52.331Z,2.00
2022-08-10T05:25:48.520Z,2.10
2022-08-10T05:28:36.009Z,2.10
2022-08-10T05:31:25.597Z,2.05
2022-08-10T05:34:20.263Z,1.67
2022-08-10T05:37:08.929Z,1.90
2022-08-10T05:40:19.070Z,2.00
2022-08-10T05:43:06.350Z,1.80
2022-08-10T05:46:19.210Z,2.42
2022-08-10T05:49:01.923Z,2.22
2022-08-10T05:51:49.305Z,2.20
2022-08-10T05:54:39.064Z,1.80
2022-08-10T05:57:28.499Z,1.92
2022-08-10T06:00:37.348Z,2.30
2022-08-10T06:03:33.318Z,2.20
2022-08-10T06:06:24.948Z,2.03
2022-08-10T06:09:12.557Z,1.93
2022-08-10T06:12:26.035Z,1.63
2022-08-10T06:15:21.821Z,1.90
2022-08-10T06:18:20.033Z,2.00
2022-08-10T06:21:09.932Z,1.70
2022-08-10T06:24:01.809Z,1.73
2022-08-10T06:26:48.960Z,2.20
2022-08-10T06:29:40.556Z,1.80
2022-08-10T06:32:30.018Z,2.00
2022-08-10T06:35:20.727Z,1.95
2022-08-10T06:38:10.215Z,2.13
2022-08-10T06:41:00.601Z,1.40
2022-08-10T06:43:58.819Z,1.55
2022-08-10T06:46:52.227Z,1.67
2022-08-10T06:49:45.390Z,2.00
2022-08-10T06:52:33.764Z,1.30
2022-08-10T06:55:39.899Z,1.58
2022-08-10T06:58:46.573Z,1.48
2022-08-10T07:01:37.907Z,1.65
2022-08-10T07:04:32.839Z,1.70
2022-08-10T07:07:24.739Z,1.42
2022-08-10T07:10:16.327Z,1.73
2022-08-10T07:13:05.121Z,1.60
2022-08-10T07:15:59.596Z,1.23
2022-08-10T07:18:48.841Z,1.30
2022-08-10T07:21:37.940Z,1.33
2022-08-10T07:24:27.163Z,1.40
2022-08-10T07:27:17.129Z,1.15
2022-08-10T07:30:04.832Z,1.23
2022-08-10T07:32:55.387Z,1.35
2022-08-10T07:35:47.175Z,1.60
2022-08-10T07:38:36.010Z,1.20
2022-08-10T07:41:25.084Z,1.10
2022-08-10T07:44:14.839Z,1.17
2022-08-10T07:47:05.852Z,1.30
2022-08-10T07:49:55.950Z,1.40
2022-08-10T07:52:45.868Z,1.55
2022-08-10T07:56:07.521Z,1.20
2022-08-10T07:58:55.070Z,1.35
2022-08-10T08:01:49.368Z,1.50
2022-08-10T08:04:37.722Z,1.35
2022-08-10T08:07:27.584Z,1.65
2022-08-10T08:10:17.636Z,1.38
2022-08-10T08:13:07.510Z,1.38
2022-08-10T08:16:20.402Z,1.35
2022-08-10T08:24:14.786Z,1.20
2022-08-10T08:25:23.519Z,1.20
2022-08-10T08:28:11.575Z,1.13
2022-08-10T08:30:58.956Z,1.45
2022-08-10T08:33:47.960Z,1.40
2022-08-10T08:36:40.687Z,1.40
2022-08-10T08:39:28.669Z,1.13
2022-08-10T08:42:30.438Z,1.60
2022-08-10T08:45:27.891Z,1.15
2022-08-10T08:48:33.456Z,1.17
2022-08-10T08:52:07.802Z,1.00
2022-08-10T08:55:50.228Z,1.10
2022-08-10T08:58:33.644Z,1.00
2022-08-10T09:04:43.174Z,1.65
2022-08-10T09:08:08.032Z,1.40
2022-08-10T09:11:14.031Z,1.05
2022-08-10T09:14:05.270Z,1.15
2022-08-10T09:17:17.699Z,1.00
2022-08-10T09:20:10.926Z,1.20
2022-08-10T09:24:04.646Z,1.05
2022-08-10T09:26:38.929Z,1.08
2022-08-10T09:29:34.205Z,0.95
2022-08-10T09:36:15.668Z,1.38
2022-08-10T09:36:24.601Z,1.20
2022-08-10T09:40:56.203Z,1.10
2022-08-10T09:43:25.884Z,1.00
2022-08-10T09:46:28.503Z,1.10
2022-08-10T09:49:55.809Z,0.93
2022-08-10T09:52:58.666Z,1.20
2022-08-10T09:56:19.216Z,1.13
2022-08-10T09:59:26.916Z,0.85
2022-08-10T10:02:27.596Z,1.00
2022-08-10T10:05:39.437Z,1.52
2022-08-10T10:12:10.235Z,1.08
2022-08-10T10:15:24.050Z,1.05
2022-08-10T10:18:19.579Z,0.75
2022-08-10T10:21:55.067Z,1.10
2022-08-10T10:24:54.475Z,1.00
2022-08-10T10:28:05.407Z,1.00
2022-08-10T10:30:58.456Z,1.17
2022-08-10T10:34:05.134Z,1.00
2022-08-10T10:36:53.802Z,0.90
2022-08-10T10:39:44.034Z,1.20
2022-08-10T10:42:54.412Z,1.00
2022-08-10T10:46:09.187Z,0.85
2022-08-10T10:49:31.405Z,0.90
2022-08-10T10:52:31.722Z,1.15
2022-08-10T10:56:13.673Z,0.90
2022-08-10T10:59:55.016Z,1.00
2022-08-10T11:02:32.699Z,0.80
2022-08-10T11:05:30.777Z,0.98
2022-08-10T11:08:36.267Z,1.02
2022-08-10T11:12:01.624Z,1.00
2022-08-10T11:14:50.660Z,1.13
2022-08-10T11:17:50.680Z,0.93
2022-08-10T11:21:19.159Z,0.90
2022-08-10T11:24:47.741Z,0.90
2022-08-10T11:27:49.325Z,1.00
2022-08-10T11:31:00.439Z,0.90
2022-08-10T11:34:46.940Z,1.00
2022-08-10T11:38:30.319Z,1.00
2022-08-10T11:41:14.673Z,1.10
2022-08-10T11:44:25.882Z,0.60
2022-08-10T11:47:17.279Z,1.00
2022-08-10T11:50:16.254Z,0.80
2022-08-10T11:53:23.182Z,1.10
2022-08-10T11:56:18.816Z,1.42
2022-08-10T11:59:24.603Z,0.80
2022-08-10T12:02:15.921Z,0.90
2022-08-10T12:05:10.684Z,1.08
2022-08-10T12:10:06.365Z,1.00
2022-08-10T12:11:12.359Z,1.35
2022-08-10T12:14:21.866Z,0.95
2022-08-10T12:17:19.454Z,1.13
2022-08-10T12:20:12.371Z,0.60
2022-08-10T12:23:10.401Z,0.70
2022-08-10T12:26:25.501Z,0.98
2022-08-10T12:29:25.501Z,0.95
2022-08-10T12:32:25.454Z,0.82
2022-08-10T12:35:25.999Z,1.23
2022-08-10T12:38:27.714Z,0.95
2022-08-10T12:41:43.752Z,0.93
2022-08-10T12:44:57.784Z,1.13
2022-08-10T12:48:22.518Z,0.90
2022-08-10T12:51:25.249Z,0.77
2022-08-10T12:54:32.241Z,1.55
2022-08-10T12:57:24.634Z,0.90
2022-08-10T13:00:17.308Z,0.90
2022-08-10T13:03:08.024Z,0.80
2022-08-10T13:06:02.050Z,1.02
2022-08-10T13:09:13.017Z,0.82
2022-08-10T13:12:37.472Z,0.98
2022-08-10T13:18:37.898Z,1.20
2022-08-10T13:21:31.812Z,0.77
2022-08-10T13:24:27.480Z,0.80
2022-08-10T13:27:26.920Z,0.85
2022-08-10T13:30:35.559Z,0.90
2022-08-10T13:34:34.081Z,1.13
2022-08-10T13:36:43.779Z,1.30
2022-08-10T13:39:58.762Z,0.90
2022-08-10T13:42:47.047Z,0.82
2022-08-10T13:45:40.588Z,0.90
2022-08-10T13:48:36.018Z,0.90
2022-08-10T13:51:56.606Z,1.00
2022-08-10T13:54:41.917Z,1.65
2022-08-10T13:57:32.304Z,1.00
2022-08-10T14:00:37.263Z,1.00
2022-08-10T14:03:27.119Z,1.23
2022-08-10T14:06:17.337Z,0.90
2022-08-10T14:09:11.960Z,1.00
2022-08-10T14:12:00.511Z,0.70
2022-08-10T14:14:52.572Z,1.60
2022-08-10T14:17:44.990Z,0.80
2022-08-10T14:23:21.368Z,0.98
2022-08-10T14:26:09.571Z,0.95
2022-08-10T14:29:03.719Z,0.90
2022-08-10T14:32:01.507Z,1.00
2022-08-10T14:36:17.315Z,1.02
2022-08-10T14:38:12.396Z,1.38
2022-08-10T14:41:03.918Z,1.10
2022-08-10T14:44:04.309Z,1.10
2022-08-10T14:46:57.377Z,0.80
2022-08-10T14:49:58.259Z,0.80
2022-08-10T14:52:49.571Z,1.10
2022-08-10T14:55:58.996Z,0.80
2022-08-10T14:59:16.723Z,1.10
2022-08-10T15:02:38.775Z,1.00
2022-08-10T15:05:20.830Z,0.70
2022-08-10T15:08:12.033Z,0.98
2022-08-10T15:11:01.496Z,0.93
2022-08-10T15:14:15.151Z,1.00
2022-08-10T15:17:00.267Z,0.80
2022-08-10T15:20:03.460Z,1.10
2022-08-10T15:23:31.265Z,1.15
2022-08-10T15:26:21.006Z,0.98
2022-08-10T15:29:24.976Z,0.70
2022-08-10T15:32:32.088Z,0.90
2022-08-10T15:35:46.734Z,1.00
2022-08-10T15:38:39.153Z,1.00
2022-08-10T15:44:53.948Z,0.90
2022-08-10T15:47:49.580Z,0.98
2022-08-10T15:50:41.412Z,1.02
2022-08-10T15:53:31.546Z,1.03
2022-08-10T15:56:40.484Z,1.02
2022-08-10T15:59:38.696Z,0.75
2022-08-10T16:02:29.837Z,0.90
2022-08-10T16:05:21.630Z,1.10
2022-08-10T16:08:55.783Z,1.10
2022-08-10T16:11:47.865Z,0.90
2022-08-10T16:14:39.766Z,1.00
2022-08-10T16:17:28.016Z,0.80
2022-08-10T16:20:31.367Z,1.20
2022-08-10T16:23:26.010Z,0.82
2022-08-10T16:26:26.637Z,0.80
2022-08-10T16:29:25.698Z,1.13
2022-08-10T16:32:14.521Z,0.82
2022-08-10T16:35:16.287Z,0.88
2022-08-10T16:38:05.159Z,0.70
2022-08-10T16:40:54.555Z,1.00
2022-08-10T16:43:45.787Z,1.05
2022-08-10T16:46:34.355Z,1.30
2022-08-10T16:49:27.378Z,1.08
2022-08-10T16:52:16.072Z,1.35
2022-08-10T16:55:24.072Z,1.10
2022-08-10T16:58:33.908Z,0.80
2022-08-10T17:01:26.969Z,1.15
2022-08-10T17:04:16.534Z,1.20
2022-08-10T17:07:08.329Z,1.50
2022-08-10T17:09:56.837Z,0.93
2022-08-10T17:12:53.299Z,1.40
2022-08-10T17:15:52.068Z,1.08
2022-08-10T17:18:42.305Z,1.00
2022-08-10T17:21:51.058Z,1.00
2022-08-10T17:24:51.102Z,1.30
2022-08-10T17:28:03.774Z,1.10
2022-08-10T17:30:58.126Z,0.98
2022-08-10T17:33:52.696Z,1.10
2022-08-10T17:36:42.075Z,1.00
2022-08-10T17:39:34.319Z,1.00
2022-08-10T17:42:26.903Z,1.00
2022-08-10T17:45:46.352Z,1.38
2022-08-10T17:48:38.151Z,1.10
2022-08-10T17:51:30.654Z,1.00
2022-08-10T17:54:24.346Z,1.13
2022-08-10T17:57:18.737Z,1.10
2022-08-10T18:00:13.736Z,1.10
2022-08-10T18:03:02.046Z,1.10
2022-08-10T18:06:07.088Z,1.20
2022-08-10T18:09:01.677Z,1.23
2022-08-10T18:15:13.262Z,0.98
2022-08-10T18:21:21.022Z,1.10
2022-08-10T18:24:21.108Z,1.33
2022-08-10T18:27:11.342Z,1.55
2022-08-10T18:30:18.635Z,1.27
2022-08-10T18:33:58.800Z,1.45
2022-08-10T18:41:29.356Z,1.42
2022-08-10T18:44:22.471Z,1.75
2022-08-10T18:47:16.242Z,1.50
2022-08-10T18:50:12.376Z,1.55
2022-08-10T18:53:18.695Z,1.42
2022-08-10T18:56:23.092Z,1.33
2022-08-10T18:59:28.321Z,1.10
2022-08-10T19:02:36.679Z,1.30
2022-08-10T19:05:48.293Z,1.00
2022-08-10T19:09:08.574Z,1.38
2022-08-10T19:11:59.934Z,1.10
2022-08-10T19:14:57.395Z,1.48
2022-08-10T19:18:16.064Z,1.45
2022-08-10T19:21:32.106Z,1.20
2022-08-10T19:24:27.919Z,1.17
2022-08-10T19:27:33.854Z,1.42
2022-08-10T19:30:27.393Z,1.20
2022-08-10T19:33:44.785Z,1.15
2022-08-10T19:36:36.839Z,1.30
2022-08-10T19:39:24.008Z,1.10
2022-08-10T19:42:36.615Z,1.10
2022-08-10T19:46:00.697Z,1.80
2022-08-10T19:49:02.557Z,1.20
2022-08-10T19:52:11.233Z,1.40
2022-08-10T19:55:33.825Z,1.80
2022-08-10T19:58:59.674Z,1.60
2022-08-10T20:01:55.467Z,1.63
2022-08-10T20:04:53.009Z,1.20
2022-08-10T20:07:50.278Z,1.50
2022-08-10T20:11:04.569Z,1.45
2022-08-10T20:14:03.640Z,1.27
2022-08-10T20:16:57.540Z,1.48
2022-08-10T20:20:09.237Z,1.33
2022-08-10T20:23:11.339Z,1.45
2022-08-10T20:26:05.600Z,1.60
2022-08-10T20:29:07.970Z,1.50
2022-08-10T20:32:32.030Z,1.63
2022-08-10T20:35:26.728Z,1.58
2022-08-10T20:38:30.713Z,1.50
2022-08-10T20:41:43.837Z,1.20
2022-08-10T20:45:03.518Z,1.70
2022-08-10T20:48:04.635Z,1.55
2022-08-10T20:51:02.211Z,1.85
2022-08-10T20:53:55.759Z,1.67
2022-08-10T20:57:01.016Z,4.65
2022-08-10T21:00:05.518Z,2.15
2022-08-10T21:03:15.966Z,1.70
2022-08-10T21:06:42.850Z,1.40
2022-08-10T21:09:37.198Z,1.50
2022-08-10T21:13:02.815Z,1.60
2022-08-10T21:16:11.755Z,1.30
2022-08-10T21:19:18.841Z,1.60
2022-08-10T21:22:17.507Z,2.17
2022-08-10T21:25:16.128Z,1.58
2022-08-10T21:31:56.641Z,1.45
2022-08-10T21:35:04.982Z,1.70
2022-08-10T21:38:13.889Z,1.55
2022-08-10T21:41:57.104Z,1.52
2022-08-10T21:45:16.693Z,1.50
2022-08-10T21:49:01.705Z,2.25
2022-08-10T21:52:16.195Z,1.67
2022-08-10T21:55:57.406Z,1.70
2022-08-10T21:59:27.744Z,1.58
2022-08-10T22:02:50.470Z,1.38
2022-08-10T22:05:58.469Z,1.60
2022-08-10T22:09:10.995Z,1.80
2022-08-10T22:12:24.916Z,1.75
2022-08-10T22:15:42.587Z,1.70
2022-08-10T22:19:14.938Z,1.60
2022-08-10T22:22:29.381Z,1.80
2022-08-10T22:26:01.176Z,1.48
2022-08-10T22:29:20.685Z,1.83
2022-08-10T22:31:26.877Z,1.67
2022-08-10T22:32:41.912Z,1.98
2022-08-10T22:36:21.037Z,1.77
2022-08-10T22:40:12.209Z,2.10
2022-08-10T22:43:10.923Z,1.80
2022-08-10T22:46:22.031Z,2.25
2022-08-10T22:49:10.091Z,1.90
2022-08-10T22:52:06.152Z,1.92
2022-08-10T22:55:25.856Z,1.83
2022-08-10T22:58:37.239Z,1.85
2022-08-10T23:02:07.352Z,1.90
2022-08-10T23:04:56.716Z,1.90
2022-08-10T23:07:58.256Z,1.80
2022-08-10T23:10:47.565Z,1.80
2022-08-10T23:13:43.400Z,1.90
2022-08-10T23:16:58.431Z,1.85
2022-08-10T23:19:56.924Z,1.90
2022-08-10T23:22:58.248Z,1.73
2022-08-10T23:25:57.054Z,1.88
2022-08-10T23:28:59.920Z,1.67
2022-08-10T23:32:06.937Z,1.80
2022-08-10T23:36:05.702Z,1.90
2022-08-10T23:38:04.834Z,1.90
2022-08-10T23:40:55.640Z,1.95
2022-08-10T23:44:04.171Z,1.70
2022-08-10T23:46:52.227Z,1.80
2022-08-10T23:49:46.677Z,1.88
2022-08-10T23:52:34.927Z,1.77
2022-08-10T23:55:49.259Z,1.83
2022-08-10T23:58:48.174Z,1.88
